Time;durP1;ratioP1;P1;durP2;ratioP2;P2;SDS_P1;SDS_P2;PMS_P1;PMS_P2;Temp;Humidity;BMP_temperature;BMP_pressure;BME280_temperature;BME280_humidity;BME280_pressure;Samples;Min_cycle;Max_cycle;Signal;HPM_P1;HPM_P2
2021/04/08 00:00:27;;;;;;;16.95;8.05;;;51.30;2227.20;;;;;;5097603;28;20028;-69
2021/04/08 00:02:53;;;;;;;25.30;8.27;;;51.30;2227.20;;;;;;5096460;28;20482;-68
2021/04/08 00:05:19;;;;;;;14.55;7.68;;;51.30;2227.20;;;;;;5097275;28;20055;-69
2021/04/08 00:07:44;;;;;;;13.45;7.63;;;51.30;2227.20;;;;;;5096943;28;20108;-69
2021/04/08 00:10:12;;;;;;;14.27;7.85;;;51.40;2227.20;;;;;;5096867;28;20032;-71
2021/04/08 00:12:38;;;;;;;14.18;8.00;;;51.40;2227.20;;;;;;5097396;28;20070;-70
2021/04/08 00:15:13;;;;;;;15.95;8.23;;;51.40;2227.20;;;;;;5097432;28;20043;-69
2021/04/08 00:17:39;;;;;;;18.15;7.57;;;51.40;2227.20;;;;;;5097118;28;20052;-68
2021/04/08 00:20:10;;;;;;;17.40;8.13;;;51.40;2227.20;;;;;;5097403;28;20027;-68
2021/04/08 00:22:36;;;;;;;19.23;8.15;;;51.40;2227.20;;;;;;5097313;28;20047;-69
2021/04/08 00:25:03;;;;;;;17.20;8.55;;;51.40;2227.20;;;;;;5096824;28;20415;-69
2021/04/08 00:27:28;;;;;;;15.27;7.30;;;51.40;2227.20;;;;;;5097063;28;20055;-68
2021/04/08 00:29:54;;;;;;;19.48;7.85;;;51.40;2227.20;;;;;;5096781;28;20121;-69
2021/04/08 00:32:20;;;;;;;13.60;7.82;;;51.40;2227.20;;;;;;5096604;28;20435;-69
2021/04/08 00:34:46;;;;;;;16.52;8.07;;;51.30;2227.20;;;;;;5096950;28;20032;-70
2021/04/08 00:37:12;;;;;;;16.73;7.65;;;51.30;2227.20;;;;;;5097923;28;20490;-70
2021/04/08 00:39:38;;;;;;;16.85;9.07;;;51.30;2227.20;;;;;;5100952;28;20099;-69
2021/04/08 00:42:05;;;;;;;14.00;7.82;;;51.20;2227.20;;;;;;5101035;28;20062;-69
2021/04/08 00:44:31;;;;;;;13.30;7.50;;;26.50;2201.60;;;;;;5100541;28;20157;-69
2021/04/08 00:46:56;;;;;;;15.05;8.93;;;51.20;2227.20;;;;;;5100814;28;20114;-69
2021/04/08 00:49:22;;;;;;;16.75;8.40;;;26.50;2201.60;;;;;;5100750;28;20338;-69
2021/04/08 00:51:48;;;;;;;15.80;8.00;;;26.50;2201.60;;;;;;5100599;28;20035;-69
2021/04/08 00:54:14;;;;;;;15.40;9.05;;;26.40;2201.60;;;;;;5100672;28;20462;-69
2021/04/08 00:56:40;;;;;;;14.68;8.20;;;26.40;2201.60;;;;;;5100610;28;20106;-69
2021/04/08 00:59:06;;;;;;;16.80;8.27;;;26.40;2201.60;;;;;;5100523;28;20028;-68
2021/04/08 01:01:32;;;;;;;16.08;8.18;;;26.30;2201.60;;;;;;5100536;28;20407;-68
2021/04/08 01:03:58;;;;;;;17.35;8.43;;;26.20;2201.60;;;;;;5100738;28;20023;-70
2021/04/08 01:06:24;;;;;;;14.30;7.78;;;26.20;2201.60;;;;;;5100438;28;20027;-69
2021/04/08 01:08:50;;;;;;;15.80;9.30;;;26.20;2201.60;;;;;;5100420;28;20059;-70
2021/04/08 01:11:16;;;;;;;15.90;9.00;;;26.20;2201.60;;;;;;5100554;28;20066;-68
2021/04/08 01:13:43;;;;;;;13.25;7.47;;;26.20;2201.60;;;;;;5099715;28;20028;-68
2021/04/08 01:16:33;;;;;;;16.67;8.57;;;26.30;2201.60;;;;;;5100523;28;20024;-68
2021/04/08 01:19:25;;;;;;;14.73;8.70;;;26.20;2201.60;;;;;;5099925;28;20028;-68
2021/04/08 01:22:29;;;;;;;17.23;9.57;;;26.20;2201.60;;;;;;5061908;28;20089;-69
2021/04/08 01:25:03;;;;;;;17.60;8.98;;;26.10;2201.60;;;;;;5017416;28;20034;-69
2021/04/08 01:28:00;;;;;;;18.02;9.80;;;26.10;2201.60;;;;;;5017196;28;20030;-70
2021/04/08 01:30:39;;;;;;;15.73;7.95;;;26.20;2201.60;;;;;;5017936;28;20045;-68
2021/04/08 01:33:18;;;;;;;16.67;8.32;;;26.20;2201.60;;;;;;5017723;28;20085;-69
2021/04/08 01:35:46;;;;;;;15.77;8.52;;;26.10;2201.60;;;;;;5017356;28;20061;-70
2021/04/08 01:38:29;;;;;;;16.52;8.40;;;26.10;2201.60;;;;;;5017563;28;20368;-68
2021/04/08 01:40:56;;;;;;;16.50;8.40;;;26.10;2201.60;;;;;;5017487;28;20030;-69
2021/04/08 01:43:26;;;;;;;15.70;8.07;;;26.00;2201.60;;;;;;5017427;28;20026;-70
2021/04/08 01:45:56;;;;;;;14.65;8.00;;;26.00;2201.60;;;;;;5017427;28;20026;-69
2021/04/08 01:48:22;;;;;;;15.73;8.13;;;25.90;2201.60;;;;;;5015961;28;20137;-69
2021/04/08 01:50:50;;;;;;;12.57;7.70;;;25.90;2201.60;;;;;;5017201;28;20161;-70
2021/04/08 01:53:19;;;;;;;12.27;7.55;;;25.80;2201.60;;;;;;5017595;28;20055;-69
2021/04/08 01:55:45;;;;;;;16.42;7.70;;;25.70;2201.60;;;;;;5017229;28;20053;-68
2021/04/08 01:58:12;;;;;;;13.73;8.00;;;25.80;2201.60;;;;;;5017474;28;20128;-69
2021/04/08 02:00:39;;;;;;;14.10;8.43;;;25.70;2201.60;;;;;;5041056;28;20039;-69
2021/04/08 02:03:05;;;;;;;13.90;7.97;;;25.70;2201.60;;;;;;5099377;28;20040;-69
2021/04/08 02:05:32;;;;;;;17.58;8.90;;;25.60;2201.60;;;;;;5099589;28;20023;-68
2021/04/08 02:07:58;;;;;;;14.60;8.88;;;25.60;2201.60;;;;;;5099568;28;20100;-69
2021/04/08 02:10:27;;;;;;;14.10;8.02;;;25.70;2201.60;;;;;;5098615;28;20066;-70
2021/04/08 02:12:55;;;;;;;15.63;8.48;;;25.60;2201.60;;;;;;5099204;28;20024;-69
2021/04/08 02:15:23;;;;;;;15.65;8.00;;;25.60;2201.60;;;;;;5099106;28;20028;-68
2021/04/08 02:17:59;;;;;;;13.77;7.80;;;25.60;2201.60;;;;;;5099110;28;20031;-68
2021/04/08 02:20:31;;;;;;;14.20;8.00;;;25.60;2201.60;;;;;;5099339;28;20244;-70
2021/04/08 02:23:00;;;;;;;15.68;8.52;;;25.70;2201.60;;;;;;5098736;28;20020;-69
2021/04/08 02:25:27;;;;;;;;;;;25.70;2201.60;;;;;;5099624;28;20028;-68
2021/04/08 02:27:55;;;;;;;14.38;8.43;;;25.80;2201.60;;;;;;5098859;28;19929;-68
2021/04/08 02:30:24;;;;;;;14.75;8.82;;;25.80;2201.60;;;;;;5098202;28;20032;-68
2021/04/08 02:32:50;;;;;;;14.27;8.15;;;25.90;2201.60;;;;;;5099134;28;20076;-70
2021/04/08 02:35:17;;;;;;;13.00;8.15;;;26.10;2201.60;;;;;;5098760;28;20028;-68
2021/04/08 02:37:48;;;;;;;11.93;7.90;;;26.10;2201.60;;;;;;5098692;28;20020;-70
2021/04/08 02:40:17;;;;;;;13.57;8.77;;;26.10;2201.60;;;;;;5098615;28;20153;-67
2021/04/08 02:42:43;;;;;;;13.10;7.93;;;26.20;2201.60;;;;;;5098885;28;20035;-70
2021/04/08 02:45:10;;;;;;;12.85;7.75;;;26.30;2201.60;;;;;;5097738;28;20107;-69
2021/04/08 02:47:37;;;;;;;14.27;7.65;;;26.40;2201.60;;;;;;5097924;28;20035;-69
2021/04/08 02:50:05;;;;;;;15.65;8.80;;;26.30;2201.60;;;;;;5098569;28;20039;-68
2021/04/08 02:52:57;;;;;;;11.43;7.82;;;26.40;2201.60;;;;;;5098435;28;20023;-69
2021/04/08 02:55:46;;;;;;;14.93;7.28;;;26.40;2201.60;;;;;;5097808;28;20369;-68
2021/04/08 02:58:14;;;;;;;;;;;26.40;2201.60;;;;;;5097922;28;20129;-71
2021/04/08 03:00:52;;;;;;;10.97;7.23;;;26.40;2201.60;;;;;;5079772;28;20195;-70
2021/04/08 03:03:23;;;;;;;12.75;7.80;;;26.40;2201.60;;;;;;5098259;28;20115;-69
2021/04/08 03:05:51;;;;;;;13.82;7.30;;;26.50;2201.60;;;;;;5097900;28;20024;-70
2021/04/08 03:08:19;;;;;;;13.25;7.68;;;26.40;2201.60;;;;;;5098364;28;20024;-69
2021/04/08 03:10:46;;;;;;;15.32;8.30;;;26.40;2201.60;;;;;;5097854;28;20403;-69
2021/04/08 03:13:15;;;;;;;12.23;7.10;;;26.30;2201.60;;;;;;5097740;28;20016;-67
2021/04/08 03:15:42;;;;;;;10.43;7.47;;;26.40;2201.60;;;;;;5098248;28;20032;-68
2021/04/08 03:18:13;;;;;;;14.02;6.40;;;26.30;2201.60;;;;;;5097928;28;20411;-68
2021/04/08 03:20:40;;;;;;;10.60;6.78;;;26.40;2201.60;;;;;;5097365;28;20020;-70
2021/04/08 03:23:09;;;;;;;14.50;7.80;;;26.40;2201.60;;;;;;5097848;28;20023;-70
2021/04/08 03:25:37;;;;;;;15.55;7.22;;;26.40;2201.60;;;;;;5097293;28;20115;-68
2021/04/08 03:28:05;;;;;;;12.38;7.07;;;26.40;2201.60;;;;;;5097512;28;20031;-68
2021/04/08 03:30:31;;;;;;;14.50;6.68;;;26.50;2201.60;;;;;;5097401;28;20032;-68
2021/04/08 03:32:58;;;;;;;9.80;6.03;;;26.50;2201.60;;;;;;5079306;28;20351;-69
2021/04/08 03:35:25;;;;;;;10.18;6.05;;;26.50;2201.60;;;;;;5097299;28;20031;-70
2021/04/08 03:37:50;;;;;;;12.70;6.70;;;51.20;2227.20;;;;;;5097356;28;20032;-68
2021/04/08 03:40:17;;;;;;;11.40;6.22;;;51.20;2227.20;;;;;;5097581;28;20111;-68
2021/04/08 03:42:44;;;;;;;9.95;6.05;;;51.20;2227.20;;;;;;5097494;28;20098;-69
2021/04/08 03:45:12;;;;;;;10.80;6.88;;;51.30;2227.20;;;;;;5097772;28;20016;-69
2021/04/08 03:47:43;;;;;;;11.98;6.88;;;51.30;2227.20;;;;;;5097205;28;20028;-69
2021/04/08 03:50:11;;;;;;;9.52;6.15;;;51.40;2227.20;;;;;;5097692;28;20429;-68
2021/04/08 03:52:42;;;;;;;9.40;5.63;;;51.30;2227.20;;;;;;5097692;28;20020;-69
2021/04/08 03:55:10;;;;;;;9.25;6.15;;;51.30;2227.20;;;;;;5097116;28;20081;-68
2021/04/08 03:57:40;;;;;;;9.45;5.95;;;51.20;2227.20;;;;;;5097641;28;20024;-68
2021/04/08 04:00:10;;;;;;;9.75;6.00;;;51.20;2227.20;;;;;;5097028;28;20032;-69
2021/04/08 04:02:37;;;;;;;10.88;6.03;;;51.20;2227.20;;;;;;5096803;28;20472;-70
2021/04/08 04:05:05;;;;;;;11.13;6.15;;;51.20;2227.20;;;;;;5097290;28;20085;-68
2021/04/08 04:07:33;;;;;;;10.00;5.90;;;51.20;2227.20;;;;;;5097258;28;20034;-69
2021/04/08 04:10:00;;;;;;;11.95;6.38;;;51.30;2227.20;;;;;;5096791;28;20020;-69
2021/04/08 04:12:26;;;;;;;10.13;6.03;;;51.30;2227.20;;;;;;5098764;28;20062;-70
2021/04/08 04:14:55;;;;;;;8.82;5.90;;;51.20;2227.20;;;;;;5101208;28;20047;-69
2021/04/08 04:17:26;;;;;;;;;;;51.20;2227.20;;;;;;5101871;28;20028;-69
2021/04/08 04:19:52;;;;;;;10.35;6.55;;;51.20;2227.20;;;;;;5101658;28;19904;-68
2021/04/08 04:22:18;;;;;;;13.50;7.57;;;26.50;2201.60;;;;;;5101349;28;20310;-69
2021/04/08 04:24:44;;;;;;;13.63;7.05;;;26.40;2201.60;;;;;;5101488;28;20027;-68
2021/04/08 04:27:09;;;;;;;12.38;6.30;;;26.30;2201.60;;;;;;5101480;28;20025;-70
2021/04/08 04:29:35;;;;;;;10.63;6.95;;;26.30;2201.60;;;;;;5100632;28;20442;-69
2021/04/08 04:32:01;;;;;;;13.65;7.10;;;26.40;2201.60;;;;;;5101071;28;20138;-69
2021/04/08 04:34:27;;;;;;;12.50;7.13;;;26.40;2201.60;;;;;;5101392;28;20411;-68
2021/04/08 04:36:53;;;;;;;10.80;7.05;;;26.40;2201.60;;;;;;5100761;28;20028;-68
2021/04/08 04:39:18;;;;;;;13.13;6.82;;;26.50;2201.60;;;;;;5101245;28;20024;-68
2021/04/08 04:41:44;;;;;;;13.38;7.43;;;51.20;2227.20;;;;;;5100958;28;20035;-69
2021/04/08 04:44:10;;;;;;;11.57;7.53;;;51.20;2227.20;;;;;;5100814;28;20326;-69
2021/04/08 04:46:36;;;;;;;16.73;6.93;;;51.40;2227.20;;;;;;5100810;28;20035;-69
2021/04/08 04:49:02;;;;;;;14.70;6.95;;;51.50;2227.20;;;;;;5101089;28;20077;-69
2021/04/08 04:51:28;;;;;;;11.32;7.35;;;51.50;2227.20;;;;;;5100677;28;20080;-70
2021/04/08 04:53:53;;;;;;;12.43;6.90;;;51.70;2227.20;;;;;;5101001;28;20028;-69
2021/04/08 04:56:19;;;;;;;11.70;6.28;;;51.80;2227.20;;;;;;5100956;28;20024;-69
2021/04/08 04:58:45;;;;;;;11.88;5.95;;;52.00;2227.20;;;;;;5100286;28;20034;-68
2021/04/08 05:01:11;;;;;;;13.13;7.43;;;51.90;2227.20;;;;;;5100281;28;20023;-68
2021/04/08 05:03:36;;;;;;;16.90;7.45;;;52.00;2227.20;;;;;;5099940;28;20081;-68
2021/04/08 05:06:02;;;;;;;12.07;6.90;;;52.10;2227.20;;;;;;5100749;28;20024;-69
2021/04/08 05:08:28;;;;;;;16.10;7.78;;;77.00;2227.20;;;;;;5100150;28;20029;-70
2021/04/08 05:10:54;;;;;;;13.73;7.13;;;77.10;2227.20;;;;;;5100285;28;20028;-69
2021/04/08 05:13:19;;;;;;;13.27;7.72;;;77.00;2227.20;;;;;;5100475;28;20074;-67
2021/04/08 05:15:45;;;;;;;25.65;8.02;;;77.10;2227.20;;;;;;5100056;28;20438;-70
2021/04/08 05:18:11;;;;;;;18.00;9.73;;;77.00;2227.20;;;;;;5100281;28;20034;-72
2021/04/08 05:20:37;;;;;;;17.67;8.43;;;77.00;2227.20;;;;;;5100207;28;20028;-71
2021/04/08 05:23:03;;;;;;;26.05;10.85;;;77.10;2227.20;;;;;;5099834;28;20020;-67
2021/04/08 05:25:29;;;;;;;19.92;10.57;;;77.20;2227.20;;;;;;5099168;28;20334;-70
2021/04/08 05:27:54;;;;;;;31.15;16.10;;;77.20;2227.20;;;;;;5099791;28;20027;-69
2021/04/08 05:30:21;;;;;;;22.50;9.25;;;77.30;2227.20;;;;;;5099819;28;20456;-72
2021/04/08 05:32:46;;;;;;;16.75;9.70;;;77.30;2227.20;;;;;;5099895;28;20086;-71
2021/04/08 05:35:13;;;;;;;23.98;10.73;;;77.30;2227.20;;;;;;5099893;28;20060;-69
2021/04/08 05:37:39;;;;;;;21.05;9.73;;;77.30;2227.20;;;;;;5099606;28;20020;-69
2021/04/08 05:40:05;;;;;;;16.73;9.07;;;77.40;2227.20;;;;;;5099547;28;20031;-69
2021/04/08 05:42:31;;;;;;;18.88;8.90;;;77.30;2227.20;;;;;;5099954;28;20407;-70
2021/04/08 05:44:57;;;;;;;12.88;7.60;;;77.20;2227.20;;;;;;5099429;28;20028;-69
2021/04/08 05:47:23;;;;;;;16.10;6.70;;;77.30;2227.20;;;;;;5099421;28;20016;-71
2021/04/08 05:49:48;;;;;;;15.77;7.10;;;77.10;2227.20;;;;;;5099604;28;20028;-69
2021/04/08 05:52:14;;;;;;;14.63;8.05;;;77.20;2227.20;;;;;;5098911;28;20334;-69
2021/04/08 05:54:40;;;;;;;12.88;6.22;;;77.20;2227.20;;;;;;5099535;28;20028;-70
2021/04/08 05:57:06;;;;;;;15.95;8.23;;;77.50;2227.20;;;;;;5099221;28;20485;-68
2021/04/08 05:59:32;;;;;;;11.90;5.88;;;77.60;2227.20;;;;;;5098700;28;20308;-70
2021/04/08 06:01:57;;;;;;;9.55;5.82;;;102.40;2227.20;;;;;;5097807;28;20081;-71
2021/04/08 06:04:23;;;;;;;13.00;7.00;;;102.40;2227.20;;;;;;5098522;28;20102;-70
2021/04/08 06:06:49;;;;;;;19.40;7.50;;;102.50;2227.20;;;;;;5099111;28;20380;-71
2021/04/08 06:09:15;;;;;;;11.63;6.85;;;102.50;2227.20;;;;;;5099210;28;20111;-70
2021/04/08 06:11:40;;;;;;;10.13;6.57;;;77.70;2227.20;;;;;;5099284;28;20043;-71
2021/04/08 06:14:06;;;;;;;17.65;6.70;;;102.40;2227.20;;;;;;5097847;28;20020;-71
2021/04/08 06:16:32;;;;;;;12.88;6.57;;;102.40;2227.20;;;;;;5076113;28;20331;-72
2021/04/08 06:18:58;;;;;;;13.13;6.20;;;77.70;2227.20;;;;;;5076185;28;20028;-69
2021/04/08 06:21:24;;;;;;;9.90;6.22;;;77.60;2227.20;;;;;;5083842;28;20177;-70
2021/04/08 06:23:53;;;;;;;15.20;8.02;;;77.50;2227.20;;;;;;5096517;28;20402;-70
2021/04/08 06:26:19;;;;;;;13.05;6.78;;;77.20;2227.20;;;;;;5092364;28;20503;-69
2021/04/08 06:28:44;;;;;;;12.55;7.25;;;77.00;2227.20;;;;;;5094333;28;20455;-70
2021/04/08 06:31:10;;;;;;;16.77;8.60;;;76.90;2227.20;;;;;;5094496;28;20134;-68
2021/04/08 06:33:36;;;;;;;15.48;8.30;;;76.90;2227.20;;;;;;5094900;28;20059;-68
2021/04/08 06:36:02;;;;;;;15.00;7.75;;;76.80;2227.20;;;;;;5093607;28;20028;-71
2021/04/08 06:38:28;;;;;;;15.95;7.70;;;76.80;2227.20;;;;;;5094741;28;20338;-68
2021/04/08 06:40:54;;;;;;;12.70;7.50;;;76.90;2227.20;;;;;;5094677;28;20204;-69
2021/04/08 06:43:20;;;;;;;9.85;5.53;;;77.10;2227.20;;;;;;5094766;28;20426;-70
2021/04/08 06:45:49;;;;;;;10.82;6.03;;;77.40;2227.20;;;;;;5095032;28;20020;-68
2021/04/08 06:48:23;;;;;;;11.75;5.53;;;77.50;2227.20;;;;;;5093676;28;20093;-69
2021/04/08 06:50:53;;;;;;;10.27;6.30;;;77.40;2227.20;;;;;;5093307;28;20036;-70
2021/04/08 06:53:20;;;;;;;14.27;6.75;;;77.30;2227.20;;;;;;5095098;28;20431;-69
2021/04/08 06:55:48;;;;;;;12.90;5.85;;;77.20;2227.20;;;;;;5095092;28;20024;-68
2021/04/08 06:58:15;;;;;;;11.07;6.78;;;77.10;2227.20;;;;;;5092539;28;20020;-69
2021/04/08 07:00:41;;;;;;;9.63;6.32;;;77.40;2227.20;;;;;;5094331;28;20602;-70
2021/04/08 07:03:09;;;;;;;14.35;7.38;;;77.70;2227.20;;;;;;5093906;28;20028;-69
2021/04/08 07:05:35;;;;;;;12.75;7.75;;;102.70;2227.20;;;;;;5092192;28;20035;-70
2021/04/08 07:08:01;;;;;;;10.45;6.55;;;103.20;2227.20;;;;;;5094715;28;20342;-68
2021/04/08 07:10:27;;;;;;;11.07;6.28;;;103.20;2227.20;;;;;;5094660;28;20180;-69
2021/04/08 07:12:54;;;;;;;9.38;5.65;;;103.10;2227.20;;;;;;5094859;28;20027;-68
2021/04/08 07:15:21;;;;;;;11.52;5.97;;;103.20;2227.20;;;;;;5092911;28;20020;-71
2021/04/08 07:17:47;;;;;;;8.88;5.45;;;103.30;2227.20;;;;;;5094610;28;20019;-68
2021/04/08 07:20:13;;;;;;;28.27;6.30;;;103.10;2227.20;;;;;;5094972;28;20027;-70
2021/04/08 07:22:39;;;;;;;9.13;4.78;;;103.30;2227.20;;;;;;5094222;28;20032;-68
2021/04/08 07:25:20;;;;;;;13.20;6.05;;;103.10;2227.20;;;;;;5093351;28;20330;-70
2021/04/08 07:27:46;;;;;;;10.27;5.55;;;103.00;2227.20;;;;;;5091690;28;20038;-70
2021/04/08 07:30:17;;;;;;;7.93;4.90;;;102.90;2227.20;;;;;;5093399;28;20337;-70
2021/04/08 07:32:43;;;;;;;14.18;5.45;;;102.90;2227.20;;;;;;5092679;28;20052;-69
2021/04/08 07:35:18;;;;;;;8.02;5.15;;;103.10;2227.20;;;;;;5093416;28;20086;-69
2021/04/08 07:37:58;;;;;;;12.55;6.32;;;102.90;2227.20;;;;;;5092318;28;20441;-71
2021/04/08 07:40:27;;;;;;;9.70;6.15;;;103.00;2227.20;;;;;;5092311;28;20112;-71
2021/04/08 07:42:53;;;;;;;9.82;5.47;;;103.10;2227.20;;;;;;5094737;28;20027;-69
2021/04/08 07:45:37;;;;;;;11.38;4.90;;;103.30;2227.20;;;;;;5091770;28;20485;-69
2021/04/08 07:48:05;;;;;;;7.93;5.07;;;128.20;2252.80;;;;;;5092345;28;20027;-71
2021/04/08 07:50:34;;;;;;;7.38;4.40;;;128.40;2252.80;;;;;;5094116;28;20042;-69
2021/04/08 07:53:00;;;;;;;8.07;5.13;;;128.50;2252.80;;;;;;5091802;28;20024;-71
2021/04/08 07:55:29;;;;;;;8.82;5.38;;;128.70;2252.80;;;;;;5094288;28;20302;-71
2021/04/08 07:57:54;;;;;;;10.85;5.75;;;153.70;2227.20;;;;;;5094950;28;20095;-70
2021/04/08 08:00:29;;;;;;;9.40;5.78;;;153.80;2176.00;;;;;;5094494;28;20186;-70
2021/04/08 08:02:58;;;;;;;11.35;6.00;;;154.00;2150.40;;;;;;5098063;28;20051;-72
2021/04/08 08:05:26;;;;;;;10.07;5.88;;;154.00;2227.20;;;;;;5094549;28;20028;-71
2021/04/08 08:07:53;;;;;;;11.57;5.53;;;154.00;2176.00;;;;;;5094670;28;20020;-70
2021/04/08 08:10:25;;;;;;;7.65;4.70;;;154.40;2176.00;;;;;;5094420;28;20719;-71
2021/04/08 08:12:52;;;;;;;13.55;8.13;;;179.40;2073.60;;;;;;5094567;28;20031;-69
2021/04/08 08:15:20;;;;;;;10.02;5.35;;;179.20;2073.60;;;;;;5094271;28;20372;-68
2021/04/08 08:17:48;;;;;;;10.93;4.53;;;154.10;2124.80;;;;;;5095041;28;20060;-69
2021/04/08 08:20:15;;;;;;;9.77;5.22;;;153.90;2150.40;;;;;;5094884;28;20249;-70
2021/04/08 08:22:42;;;;;;;9.30;4.55;;;154.10;2099.20;;;;;;5095266;28;20052;-69
2021/04/08 08:25:09;;;;;;;7.10;4.47;;;154.00;2124.80;;;;;;5095060;28;20476;-72
2021/04/08 08:27:40;;;;;;;6.57;3.30;;;154.00;2150.40;;;;;;5094109;28;20024;-69
2021/04/08 08:30:08;;;;;;;7.90;4.47;;;128.90;2048.00;;;;;;5094257;28;20038;-70
2021/04/08 08:32:34;;;;;;;7.05;4.25;;;128.80;2073.60;;;;;;5093872;28;20056;-69
2021/04/08 08:34:59;;;;;;;8.73;4.28;;;128.80;2073.60;;;;;;5094153;28;20035;-69
2021/04/08 08:37:27;;;;;;;14.15;6.45;;;128.80;2073.60;;;;;;5094661;28;20031;-71
2021/04/08 08:39:55;;;;;;;10.65;5.72;;;128.80;2201.60;;;;;;5094202;28;20024;-69
2021/04/08 08:42:23;;;;;;;12.85;6.65;;;153.80;2176.00;;;;;;5094660;28;20407;-69
2021/04/08 08:44:49;;;;;;;7.22;4.85;;;154.00;2150.40;;;;;;5094011;28;20466;-70
2021/04/08 08:47:25;;;;;;;9.52;5.40;;;154.00;2048.00;;;;;;5094740;28;20046;-69
2021/04/08 08:50:12;;;;;;;8.02;4.53;;;154.30;2073.60;;;;;;5094869;28;20032;-70
2021/04/08 08:52:41;;;;;;;5.90;4.28;;;179.20;1996.80;;;;;;5094784;28;20032;-71
2021/04/08 08:55:18;;;;;;;7.22;4.60;;;179.50;1945.60;;;;;;5094559;28;20028;-71
2021/04/08 08:57:46;;;;;;;6.63;3.90;;;179.50;1971.20;;;;;;5094509;28;20165;-70
2021/04/08 09:00:15;;;;;;;7.88;4.78;;;179.50;1920.00;;;;;;5098526;28;20020;-71
2021/04/08 09:02:42;;;;;;;11.52;4.63;;;179.40;1894.40;;;;;;5097213;28;20363;-69
2021/04/08 09:05:16;;;;;;;9.68;4.20;;;179.60;1868.80;;;;;;5097967;28;20027;-69
2021/04/08 09:07:45;;;;;;;8.38;3.42;;;180.10;1843.20;;;;;;5098191;28;20024;-71
2021/04/08 09:10:12;;;;;;;6.00;3.80;;;180.00;1792.00;;;;;;5097552;28;20027;-71
2021/04/08 09:12:39;;;;;;;5.85;3.85;;;180.10;1792.00;;;;;;5098465;28;20032;-72
2021/04/08 09:15:06;;;;;;;6.38;3.60;;;180.00;1766.40;;;;;;5096168;28;20465;-70
2021/04/08 09:17:54;;;;;;;7.38;3.78;;;179.90;1817.60;;;;;;5096759;28;20031;-70
2021/04/08 09:20:22;;;;;;;8.65;4.32;;;180.00;1868.80;;;;;;5096866;28;20434;-69
2021/04/08 09:23:01;;;;;;;6.65;3.88;;;179.90;1792.00;;;;;;5096739;28;20043;-70
2021/04/08 09:25:32;;;;;;;6.78;4.10;;;204.80;1843.20;;;;;;5094632;28;20115;-72
2021/04/08 09:28:04;;;;;;;12.15;4.45;;;205.40;1766.40;;;;;;5096918;28;20020;-70
2021/04/08 09:30:49;;;;;;;5.32;3.63;;;230.50;1715.20;;;;;;5096021;28;20031;-70
2021/04/08 09:33:16;;;;;;;5.95;3.33;;;205.60;1638.40;;;;;;5095851;28;20048;-70
2021/04/08 09:35:43;;;;;;;7.88;4.05;;;205.30;1587.20;;;;;;5097859;28;20024;-71
2021/04/08 09:38:09;;;;;;;5.90;3.97;;;205.60;1664.00;;;;;;5096102;28;20035;-70
2021/04/08 09:40:44;;;;;;;6.13;3.30;;;205.40;1612.80;;;;;;5078467;28;20028;-69
2021/04/08 09:43:15;;;;;;;6.30;3.70;;;205.20;1664.00;;;;;;5094303;28;20031;-70
2021/04/08 09:45:59;;;;;;;9.43;4.45;;;204.90;1689.60;;;;;;5094275;28;20015;-70
2021/04/08 09:48:27;;;;;;;5.82;3.60;;;179.90;1689.60;;;;;;5094820;28;20031;-70
2021/04/08 09:51:00;;;;;;;6.38;3.60;;;180.00;1715.20;;;;;;5096013;28;20028;-68
2021/04/08 09:53:48;;;;;;;5.88;3.58;;;204.80;1689.60;;;;;;5094523;28;20035;-71
2021/04/08 09:56:13;;;;;;;6.20;3.83;;;180.10;1715.20;;;;;;5077915;28;20035;-68
2021/04/08 09:58:40;;;;;;;5.80;3.33;;;180.00;1715.20;;;;;;5097209;28;20030;-68
2021/04/08 10:01:10;;;;;;;6.38;3.70;;;204.80;1740.80;;;;;;5097042;28;20058;-68
2021/04/08 10:03:41;;;;;;;7.47;3.50;;;205.10;1766.40;;;;;;5096952;28;20419;-69
2021/04/08 10:06:21;;;;;;;5.80;3.50;;;205.40;1638.40;;;;;;5096749;28;20036;-71
2021/04/08 10:08:49;;;;;;;5.63;3.60;;;205.40;1561.60;;;;;;5093981;28;20423;-69
2021/04/08 10:11:24;;;;;;;6.70;3.40;;;205.20;1612.80;;;;;;5094910;28;20032;-72
2021/04/08 10:13:50;;;;;;;6.70;3.83;;;205.00;1638.40;;;;;;5094924;28;20066;-71
2021/04/08 10:16:16;;;;;;;5.53;3.72;;;205.20;1638.40;;;;;;5095578;28;20734;-68
2021/04/08 10:18:44;;;;;;;6.40;3.15;;;205.50;1638.40;;;;;;5096308;28;20403;-72
2021/04/08 10:21:15;;;;;;;5.32;3.20;;;205.60;1638.40;;;;;;5095911;28;20040;-71
2021/04/08 10:23:49;;;;;;;3.95;2.58;;;205.30;1587.20;;;;;;5095318;28;20431;-71
2021/04/08 10:26:21;;;;;;;5.38;3.40;;;205.40;1536.00;;;;;;5096063;28;20030;-71
2021/04/08 10:29:05;;;;;;;7.30;3.03;;;205.60;1638.40;;;;;;5094133;28;20026;-71
2021/04/08 10:31:42;;;;;;;9.55;3.95;;;205.70;1561.60;;;;;;5094226;28;20063;-70
2021/04/08 10:34:21;;;;;;;6.43;3.35;;;230.80;1561.60;;;;;;5093993;28;20138;-69
2021/04/08 10:36:58;;;;;;;;;;;231.10;1459.20;;;;;;5093979;28;20016;-71
2021/04/08 10:39:33;;;;;;;4.07;2.33;;;231.10;1459.20;;;;;;5093019;28;19908;-69
2021/04/08 10:42:11;;;;;;;5.95;2.83;;;230.60;1484.80;;;;;;5095796;28;20027;-69
2021/04/08 10:44:46;;;;;;;4.93;2.50;;;230.80;1536.00;;;;;;5095790;28;20138;-70
2021/04/08 10:47:21;;;;;;;10.45;3.03;;;230.60;1484.80;;;;;;5095816;28;20028;-70
2021/04/08 10:49:58;;;;;;;17.45;3.60;;;230.40;1459.20;;;;;;5093757;28;20020;-70
2021/04/08 10:52:35;;;;;;;4.57;2.38;;;230.80;1536.00;;;;;;5093174;28;20032;-70
2021/04/08 10:55:09;;;;;;;3.78;2.42;;;230.60;1459.20;;;;;;5095543;28;20028;-70
2021/04/08 10:57:36;;;;;;;5.63;2.75;;;205.70;1484.80;;;;;;5095012;28;20028;-69
2021/04/08 11:00:05;;;;;;;4.13;2.70;;;205.50;1536.00;;;;;;5092784;28;20043;-69
2021/04/08 11:02:36;;;;;;;5.15;2.67;;;205.40;1510.40;;;;;;5095180;28;20035;-70
2021/04/08 11:05:06;;;;;;;5.68;2.83;;;205.50;1536.00;;;;;;5095645;28;20058;-69
2021/04/08 11:07:41;;;;;;;8.48;3.72;;;230.60;1484.80;;;;;;5095665;28;20084;-70
2021/04/08 11:10:11;;;;;;;4.85;2.80;;;231.10;1510.40;;;;;;5095334;28;20027;-69
2021/04/08 11:12:37;;;;;;;5.82;2.75;;;256.00;1433.60;;;;;;5094943;28;20039;-71
2021/04/08 11:15:04;;;;;;;7.30;3.67;;;256.20;1433.60;;;;;;5094966;28;20027;-70
2021/04/08 11:17:33;;;;;;;3.60;2.25;;;256.00;1382.40;;;;;;5094737;28;20030;-69
2021/04/08 11:19:59;;;;;;;4.28;2.40;;;231.00;1408.00;;;;;;5094963;28;20023;-69
2021/04/08 11:22:32;;;;;;;3.55;2.10;;;256.00;1459.20;;;;;;5094956;28;20052;-70
2021/04/08 11:24:59;;;;;;;4.00;2.22;;;256.60;1408.00;;;;;;5094679;28;20103;-69
2021/04/08 11:27:27;;;;;;;4.88;2.47;;;256.70;1305.60;;;;;;5091775;28;20024;-71
2021/04/08 11:29:53;;;;;;;5.35;2.67;;;281.60;1305.60;;;;;;5094442;28;20106;-69
2021/04/08 11:32:19;;;;;;;6.53;2.38;;;256.60;1254.40;;;;;;5094096;28;20477;-69
2021/04/08 11:34:58;;;;;;;6.03;2.13;;;256.30;1356.80;;;;;;5094899;28;20042;-70
2021/04/08 11:37:36;;;;;;;4.55;2.33;;;256.10;1280.00;;;;;;5094819;28;20024;-70
2021/04/08 11:40:06;;;;;;;5.65;2.90;;;231.30;1331.20;;;;;;5094460;28;20027;-71
2021/04/08 11:42:40;;;;;;;9.05;2.83;;;256.10;1356.80;;;;;;5094843;28;20030;-71
2021/04/08 11:45:26;;;;;;;6.78;2.85;;;282.00;1305.60;;;;;;5092392;28;20637;-71
2021/04/08 11:48:04;;;;;;;4.32;2.47;;;307.60;1280.00;;;;;;5092144;28;20024;-70
2021/04/08 11:50:58;;;;;;;5.10;2.90;;;332.90;1331.20;;;;;;5092300;28;20129;-71
2021/04/08 11:53:36;;;;;;;5.43;3.00;;;282.20;1152.00;;;;;;5093724;28;20688;-72
2021/04/08 11:56:03;;;;;;;5.13;2.88;;;256.60;1228.80;;;;;;5094304;28;20035;-72
2021/04/08 11:58:31;;;;;;;4.10;2.70;;;256.70;1228.80;;;;;;5093195;28;20031;-73
2021/04/08 12:01:14;;;;;;;5.45;2.60;;;282.10;1254.40;;;;;;5096573;28;20028;-73
2021/04/08 12:03:43;;;;;;;5.15;2.50;;;282.40;1177.60;;;;;;5094946;28;20024;-71
2021/04/08 12:06:13;;;;;;;;;;;307.80;1228.80;;;;;;5095441;28;20027;-71
2021/04/08 12:08:49;;;;;;;3.88;2.60;;;333.30;1203.20;;;;;;5095163;28;19911;-72
2021/04/08 12:11:16;;;;;;;4.53;2.95;;;333.70;1152.00;;;;;;5097264;28;20032;-71
2021/04/08 12:13:43;;;;;;;4.88;2.70;;;359.00;1126.40;;;;;;5097248;28;20032;-71
2021/04/08 12:16:25;;;;;;;3.83;2.33;;;332.80;1152.00;;;;;;5096706;28;20051;-71
2021/04/08 12:18:53;;;;;;;5.28;2.33;;;282.10;1228.80;;;;;;5096663;28;20028;-70
2021/04/08 12:21:19;;;;;;;4.43;2.42;;;281.60;1280.00;;;;;;5096774;28;20050;-70
2021/04/08 12:23:46;;;;;;;5.20;2.45;;;256.20;1254.40;;;;;;5097033;28;20438;-70
2021/04/08 12:26:13;;;;;;;5.05;2.65;;;231.00;1305.60;;;;;;5079077;28;20032;-69
2021/04/08 12:28:40;;;;;;;4.90;2.53;;;231.00;1305.60;;;;;;5073486;28;20031;-69